Strona główna
METAR-TAF:

METAR-TAF

Lotnisko :

Mary's Harbour, Terytoria Północno-Zachodnie, Kanada

Szerokość geograficzna: 52-18N, Długość geograficzna: 055-51W, wysokość: 11 m

Aktualna obserwacja pogody

Raport powstał 1 godzina i 8 minut temu, godzina 05:00 UTC
Wiatr 5 kt od południowy zachód
Temperatura -11°C
Wilgotność 72%
Ciśnienie 1015 hPa
Widzialność: 14.5 km
bezchmurnie

METAR: CYMH 170500Z AUTO 23005KT 9SM CLR M11/M15 A2998 RMK SLP154

czas: 23:08 (06:08 UTC)

Prognoza

Raport powstał 4 godziny i 30 minut temu, godzina 01:38 UTC
Prognoza ważna od 17 godzina 02 UTC do 17 godzina 04 UTC
Wiatr 7 kt od zachodnio-północny zachód
Widzialność: 10 km
bezchmurnie

TAF: CYMH 170138Z 1702/1704 29007KT P6SM SKC RMK FCST BASED ON AUTO OBS. NXT FCST WILL BE ISSUED AT 170945Z

Obserwacja i prognoza pogody dla ponad 4000 lotnisk (raport METAR i TAF).

Dostępne stacje oznaczono żółtymi i czerwonymi punktami na mapie.

Najedź kursorem aby zobaczyć nazwę stacji.

Kliknij aby zobaczyć obserwacje i prognozy pogody.

Aby zmienić mapę: kliknij na zielony przycisk z czarnym krzyżykiem, aby powiększyć; na zielony przycisk z myślnikiem, aby pomniejszyć; na zielone strzałki, aby przejść do map sąsiednich.


METAR-TAF: